createdAt,value
2022-10-11T00:01:15.912Z,17.32
2022-10-11T00:03:42.228Z,17.38
2022-10-11T00:06:09.347Z,17.39
2022-10-11T00:08:36.117Z,17.40
2022-10-11T00:11:06.249Z,17.45
2022-10-11T00:13:33.064Z,17.48
2022-10-11T00:15:59.700Z,17.43
2022-10-11T00:18:26.299Z,17.47
2022-10-11T00:21:07.693Z,17.47
2022-10-11T00:23:34.218Z,17.49
2022-10-11T00:26:03.301Z,17.36
2022-10-11T00:28:30.465Z,17.32
2022-10-11T00:30:57.189Z,17.37
2022-10-11T00:33:23.659Z,17.40
2022-10-11T00:35:50.082Z,17.38
2022-10-11T00:38:16.908Z,17.36
2022-10-11T00:40:43.813Z,17.29
2022-10-11T00:43:19.108Z,17.30
2022-10-11T00:45:51.129Z,17.29
2022-10-11T00:48:23.249Z,17.37
2022-10-11T00:50:49.700Z,17.48
2022-10-11T00:53:16.001Z,17.47
2022-10-11T00:55:50.581Z,17.46
2022-10-11T00:58:18.677Z,17.37
2022-10-11T01:00:45.080Z,17.32
2022-10-11T01:03:11.406Z,17.38
2022-10-11T01:05:39.593Z,17.38
2022-10-11T01:08:08.105Z,17.22
2022-10-11T01:10:35.090Z,17.10
2022-10-11T01:13:16.539Z,17.21
2022-10-11T01:15:55.077Z,17.27
2022-10-11T01:18:30.929Z,17.34
2022-10-11T01:21:05.132Z,17.40
2022-10-11T01:23:40.423Z,17.38
2022-10-11T01:26:51.084Z,17.13
2022-10-11T01:29:32.548Z,16.00
2022-10-11T01:32:07.463Z,15.97
2022-10-11T01:34:52.457Z,16.29
2022-10-11T01:37:36.923Z,16.29
2022-10-11T01:40:32.415Z,16.47
2022-10-11T01:43:00.548Z,16.58
2022-10-11T01:45:27.224Z,16.74
2022-10-11T01:48:09.892Z,16.80
2022-10-11T01:50:47.543Z,16.82
2022-10-11T01:53:47.159Z,16.88
2022-10-11T01:56:31.676Z,16.88
2022-10-11T01:59:16.462Z,17.05
2022-10-11T02:01:45.738Z,17.03
2022-10-11T02:04:22.318Z,16.99
2022-10-11T02:07:10.781Z,16.99
2022-10-11T02:09:56.578Z,17.07
2022-10-11T02:12:32.750Z,17.10
2022-10-11T02:15:02.742Z,17.15
2022-10-11T02:17:37.126Z,17.22
2022-10-11T02:20:09.429Z,17.15
2022-10-11T02:22:38.618Z,17.24
2022-10-11T02:25:10.533Z,17.20
2022-10-11T02:27:39.438Z,17.22
2022-10-11T02:30:09.371Z,17.21
2022-10-11T02:32:39.908Z,17.26
2022-10-11T02:35:07.044Z,17.16
2022-10-11T02:37:43.457Z,17.22
2022-10-11T02:40:21.655Z,17.17
2022-10-11T02:42:58.682Z,17.24
2022-10-11T02:45:56.060Z,17.25
2022-10-11T02:48:25.015Z,17.22
2022-10-11T02:50:53.192Z,17.20
2022-10-11T02:53:21.043Z,17.22
2022-10-11T02:55:49.832Z,17.15
2022-10-11T02:58:16.151Z,17.15
2022-10-11T03:00:42.687Z,17.16
2022-10-11T03:03:09.022Z,17.20
2022-10-11T03:05:41.396Z,17.16
2022-10-11T03:08:08.445Z,17.18
2022-10-11T03:10:35.429Z,17.25
2022-10-11T03:13:02.362Z,17.19
2022-10-11T03:15:29.160Z,17.19
2022-10-11T03:17:55.973Z,17.22
2022-10-11T03:20:22.578Z,17.25
2022-10-11T03:22:48.900Z,17.16
2022-10-11T03:25:15.301Z,17.11
2022-10-11T03:27:41.589Z,17.04
2022-10-11T03:30:14.191Z,17.05
2022-10-11T03:32:45.500Z,17.07
2022-10-11T03:35:11.849Z,17.09
2022-10-11T03:37:38.245Z,17.16
2022-10-11T03:40:06.426Z,17.14
2022-10-11T03:42:32.716Z,17.12
2022-10-11T03:45:01.508Z,17.11
2022-10-11T03:47:27.793Z,17.15
2022-10-11T03:49:54.097Z,17.02
2022-10-11T03:52:20.434Z,17.10
2022-10-11T03:54:46.769Z,16.96
2022-10-11T03:57:13.261Z,16.90
2022-10-11T03:59:39.747Z,16.87
2022-10-11T04:02:06.326Z,16.92
2022-10-11T04:04:32.857Z,17.00
2022-10-11T04:06:59.199Z,17.09
2022-10-11T04:09:25.470Z,17.11
2022-10-11T04:11:51.792Z,17.14
2022-10-11T04:14:18.135Z,17.11
2022-10-11T04:16:44.430Z,17.02
2022-10-11T04:19:10.708Z,17.04
2022-10-11T04:21:36.984Z,17.06
2022-10-11T04:24:03.519Z,17.06
2022-10-11T04:26:29.952Z,17.09
2022-10-11T04:28:56.309Z,17.11
2022-10-11T04:31:23.448Z,17.15
2022-10-11T04:33:50.176Z,17.15
2022-10-11T04:36:16.470Z,17.13
2022-10-11T04:38:42.805Z,17.13
2022-10-11T04:41:12.272Z,17.15
2022-10-11T04:43:39.018Z,17.12
2022-10-11T04:46:06.331Z,17.11
2022-10-11T04:48:32.902Z,17.16
2022-10-11T04:50:59.275Z,17.13
2022-10-11T04:53:25.641Z,17.10
2022-10-11T04:56:14.989Z,17.10
2022-10-11T04:58:41.555Z,17.13
2022-10-11T05:01:08.944Z,17.10
2022-10-11T05:03:35.604Z,17.08
2022-10-11T05:06:05.578Z,17.00
2022-10-11T05:08:32.761Z,16.93
2022-10-11T05:11:05.767Z,16.97
2022-10-11T05:13:34.038Z,16.80
2022-10-11T05:16:00.377Z,16.82
2022-10-11T05:18:27.339Z,16.82
2022-10-11T05:21:05.842Z,16.77
2022-10-11T05:23:33.981Z,16.73
2022-10-11T05:26:01.670Z,16.77
2022-10-11T05:28:28.206Z,16.78
2022-10-11T05:30:55.018Z,16.74
2022-10-11T05:33:21.462Z,16.82
2022-10-11T05:35:47.963Z,16.89
2022-10-11T05:38:14.335Z,16.88
2022-10-11T05:40:40.666Z,16.84
2022-10-11T05:43:07.343Z,16.84
2022-10-11T05:45:38.731Z,16.84
2022-10-11T05:48:05.896Z,16.78
2022-10-11T05:50:32.767Z,16.81
2022-10-11T05:52:59.242Z,16.67
2022-10-11T05:55:25.736Z,16.71
2022-10-11T05:57:56.419Z,16.71
2022-10-11T06:00:25.090Z,16.51
2022-10-11T06:02:52.349Z,16.35
2022-10-11T06:05:18.654Z,16.16
2022-10-11T06:07:44.947Z,16.21
2022-10-11T06:10:11.852Z,16.26
2022-10-11T06:12:38.678Z,16.23
2022-10-11T06:15:06.276Z,16.13
2022-10-11T06:17:32.646Z,16.25
2022-10-11T06:19:58.929Z,16.27
2022-10-11T06:22:26.548Z,16.42
2022-10-11T06:24:52.847Z,16.38
2022-10-11T06:27:19.340Z,16.50
2022-10-11T06:29:45.662Z,16.56
2022-10-11T06:32:13.245Z,16.57
2022-10-11T06:34:39.542Z,16.59
2022-10-11T06:37:05.858Z,16.68
2022-10-11T06:39:32.254Z,16.76
2022-10-11T06:41:58.548Z,16.77
2022-10-11T06:44:26.204Z,16.81
2022-10-11T06:46:52.502Z,16.84
2022-10-11T06:49:23.155Z,16.86
2022-10-11T06:51:50.299Z,16.93
2022-10-11T06:54:16.636Z,16.95
2022-10-11T06:56:44.595Z,16.96
2022-10-11T06:59:12.022Z,17.04
2022-10-11T07:01:38.383Z,17.09
2022-10-11T07:04:04.956Z,17.16
2022-10-11T07:06:32.094Z,17.20
2022-10-11T07:09:00.390Z,17.19
2022-10-11T07:11:28.091Z,17.26
2022-10-11T07:13:57.024Z,17.20
2022-10-11T07:16:24.387Z,17.06
2022-10-11T07:19:00.695Z,16.92
2022-10-11T07:21:29.367Z,16.98
2022-10-11T07:23:55.697Z,17.19
2022-10-11T07:26:22.062Z,17.32
2022-10-11T07:28:48.517Z,17.36
2022-10-11T07:31:17.939Z,17.48
2022-10-11T07:33:44.523Z,17.35
2022-10-11T07:36:11.773Z,17.45
2022-10-11T07:38:43.560Z,17.53
2022-10-11T07:41:10.329Z,17.60
2022-10-11T07:43:37.890Z,17.65
2022-10-11T07:46:05.650Z,17.77
2022-10-11T07:48:34.390Z,17.77
2022-10-11T07:51:10.101Z,17.88
2022-10-11T07:53:47.361Z,17.83
2022-10-11T07:56:16.288Z,17.88
2022-10-11T07:58:43.433Z,17.90
2022-10-11T08:01:11.166Z,17.99
2022-10-11T08:03:38.231Z,18.04
2022-10-11T08:06:08.566Z,18.07
2022-10-11T08:08:36.533Z,18.12
2022-10-11T08:11:03.659Z,18.15
2022-10-11T08:13:29.976Z,18.22
2022-10-11T08:15:57.001Z,18.14
2022-10-11T08:18:24.272Z,18.02
2022-10-11T08:20:50.767Z,18.14
2022-10-11T08:23:18.481Z,18.03
2022-10-11T08:25:46.926Z,18.16
2022-10-11T08:28:17.931Z,18.31
2022-10-11T08:30:49.857Z,18.38
2022-10-11T08:33:17.876Z,18.37
2022-10-11T08:35:44.633Z,18.16
2022-10-11T08:38:11.378Z,18.31
2022-10-11T08:40:38.193Z,18.33
2022-10-11T08:43:08.276Z,18.55
2022-10-11T08:45:46.067Z,18.57
2022-10-11T08:48:19.868Z,18.71
2022-10-11T08:50:49.871Z,18.80
2022-10-11T08:53:27.268Z,18.87
2022-10-11T08:55:54.777Z,18.84
2022-10-11T08:58:33.062Z,18.89
2022-10-11T09:01:01.015Z,18.82
2022-10-11T09:03:40.464Z,18.95
2022-10-11T09:06:07.400Z,18.99
2022-10-11T09:09:15.420Z,18.71
2022-10-11T09:12:02.928Z,18.76
2022-10-11T09:14:34.996Z,18.90
2022-10-11T09:17:39.770Z,19.08
2022-10-11T09:20:23.969Z,18.89
2022-10-11T09:23:01.963Z,18.82
2022-10-11T09:25:49.410Z,19.04
2022-10-11T09:28:44.421Z,18.89
2022-10-11T09:31:11.584Z,18.66
2022-10-11T09:33:44.048Z,18.92
2022-10-11T09:36:25.699Z,18.99
2022-10-11T09:39:29.654Z,19.03
2022-10-11T09:42:03.387Z,19.18
2022-10-11T09:44:36.955Z,19.03
2022-10-11T09:47:04.443Z,18.99
2022-10-11T09:49:44.728Z,19.31
2022-10-11T09:52:15.806Z,19.42
2022-10-11T09:54:48.527Z,19.52
2022-10-11T09:57:36.847Z,19.36
2022-10-11T10:00:11.902Z,19.37
2022-10-11T10:02:48.780Z,18.97
2022-10-11T10:05:36.703Z,18.90
2022-10-11T10:08:22.777Z,18.96
2022-10-11T10:10:59.641Z,19.08
2022-10-11T10:13:47.765Z,18.89
2022-10-11T10:16:25.072Z,19.01
2022-10-11T10:18:59.140Z,19.17
2022-10-11T10:21:33.896Z,19.09
2022-10-11T10:24:05.131Z,18.89
2022-10-11T10:26:33.280Z,18.84
2022-10-11T10:29:20.003Z,18.84
2022-10-11T10:32:12.979Z,19.12
2022-10-11T10:34:38.409Z,18.93
2022-10-11T10:37:25.194Z,18.99
2022-10-11T10:40:06.346Z,19.15
2022-10-11T10:42:32.962Z,19.37
2022-10-11T10:44:59.900Z,19.16
2022-10-11T10:47:45.984Z,19.36
2022-10-11T10:50:30.950Z,19.38
2022-10-11T10:53:23.068Z,19.36
2022-10-11T10:56:00.996Z,19.38
2022-10-11T10:58:52.367Z,19.64
2022-10-11T11:01:30.458Z,19.59
2022-10-11T11:04:15.882Z,19.44
2022-10-11T11:06:55.355Z,19.62
2022-10-11T11:09:49.709Z,20.03
2022-10-11T11:12:28.244Z,20.01
2022-10-11T11:15:11.446Z,19.84
2022-10-11T11:17:58.032Z,20.09
2022-10-11T11:20:40.172Z,20.29
2022-10-11T11:23:20.571Z,20.36
2022-10-11T11:25:53.895Z,20.26
2022-10-11T11:28:57.910Z,20.67
2022-10-11T11:31:57.347Z,21.03
2022-10-11T11:34:33.140Z,21.16
2022-10-11T11:37:04.168Z,21.25
2022-10-11T11:40:14.025Z,21.42
2022-10-11T11:42:51.301Z,21.28
2022-10-11T11:45:41.613Z,21.45
2022-10-11T11:48:19.704Z,21.50
2022-10-11T11:51:03.665Z,21.30
2022-10-11T11:53:46.542Z,21.47
2022-10-11T11:56:33.065Z,21.83
2022-10-11T11:59:19.658Z,21.87
2022-10-11T12:01:56.666Z,22.14
2022-10-11T12:04:35.970Z,22.47
2022-10-11T12:07:16.264Z,22.28
2022-10-11T12:09:46.383Z,21.97
2022-10-11T12:12:33.872Z,22.09
2022-10-11T12:15:09.071Z,22.47
2022-10-11T12:17:57.856Z,22.43
2022-10-11T12:20:26.975Z,22.45
2022-10-11T12:23:19.740Z,22.73
2022-10-11T12:26:06.288Z,23.21
2022-10-11T12:28:41.938Z,23.50
2022-10-11T12:31:23.648Z,23.32
2022-10-11T12:34:02.275Z,23.22
2022-10-11T12:36:32.798Z,23.42
2022-10-11T12:39:20.858Z,23.30
2022-10-11T12:41:47.087Z,23.48
2022-10-11T12:44:22.599Z,23.51
2022-10-11T12:46:54.951Z,23.44
2022-10-11T12:49:31.038Z,23.21
2022-10-11T12:52:34.572Z,23.09
2022-10-11T12:55:50.637Z,23.32
2022-10-11T12:58:27.941Z,23.47
2022-10-11T13:00:57.682Z,23.26
2022-10-11T13:03:40.818Z,23.21
2022-10-11T13:06:30.849Z,23.14
2022-10-11T13:09:14.809Z,23.36
2022-10-11T13:11:50.803Z,23.60
2022-10-11T13:14:21.394Z,23.46
2022-10-11T13:16:55.693Z,23.58
2022-10-11T13:19:22.901Z,23.67
2022-10-11T13:21:54.393Z,23.45
2022-10-11T13:24:23.036Z,23.77
2022-10-11T13:27:03.443Z,24.01
2022-10-11T13:29:36.259Z,24.04
2022-10-11T13:32:12.381Z,24.10
2022-10-11T13:34:41.557Z,24.03
2022-10-11T13:37:15.103Z,24.07
2022-10-11T13:39:41.723Z,24.01
2022-10-11T13:42:13.320Z,23.87
2022-10-11T13:44:41.236Z,23.84
2022-10-11T13:47:12.922Z,23.68
2022-10-11T13:49:40.083Z,23.66
2022-10-11T13:52:19.781Z,23.80
2022-10-11T13:55:04.056Z,23.85
2022-10-11T13:57:43.422Z,23.85
2022-10-11T14:00:34.827Z,23.62
2022-10-11T14:03:06.658Z,23.35
2022-10-11T14:05:35.650Z,23.35
2022-10-11T14:08:06.244Z,23.30
2022-10-11T14:10:33.320Z,23.23
2022-10-11T14:13:25.335Z,23.33
2022-10-11T14:16:18.845Z,23.14
2022-10-11T14:18:48.554Z,23.17
2022-10-11T14:21:39.882Z,23.11
2022-10-11T14:24:10.413Z,23.07
2022-10-11T14:26:40.637Z,23.21
2022-10-11T14:29:12.228Z,23.28
2022-10-11T14:31:42.012Z,23.30
2022-10-11T14:34:16.658Z,23.29
2022-10-11T14:36:42.991Z,23.30
2022-10-11T14:39:18.559Z,23.26
2022-10-11T14:41:45.692Z,23.29
2022-10-11T14:44:12.945Z,23.25
2022-10-11T14:46:40.809Z,23.30
2022-10-11T14:49:21.902Z,23.31
2022-10-11T14:51:49.962Z,23.28
2022-10-11T14:54:18.889Z,23.30
2022-10-11T14:56:46.177Z,23.13
2022-10-11T14:59:18.664Z,22.96
2022-10-11T15:01:46.865Z,22.72
2022-10-11T15:04:13.320Z,22.71
2022-10-11T15:06:41.135Z,22.79
2022-10-11T15:09:08.102Z,22.80
2022-10-11T15:11:36.872Z,22.82
2022-10-11T15:14:03.840Z,22.81
2022-10-11T15:16:30.447Z,22.82
2022-10-11T15:18:56.798Z,22.72
2022-10-11T15:21:25.879Z,22.75
2022-10-11T15:23:53.808Z,22.70
2022-10-11T15:26:29.367Z,22.62
2022-10-11T15:28:57.005Z,22.14
2022-10-11T15:31:23.810Z,22.23
2022-10-11T15:33:50.425Z,21.91
2022-10-11T15:36:19.632Z,21.99
2022-10-11T15:38:47.467Z,22.02
2022-10-11T15:41:17.454Z,22.05
2022-10-11T15:43:45.207Z,22.09
2022-10-11T15:46:15.767Z,21.99
2022-10-11T15:48:42.060Z,21.96
2022-10-11T15:51:08.468Z,21.96
2022-10-11T15:53:35.191Z,21.85
2022-10-11T15:56:04.988Z,21.89
2022-10-11T15:58:34.464Z,21.90
2022-10-11T16:01:05.931Z,21.83
2022-10-11T16:03:33.219Z,21.75
2022-10-11T16:06:04.929Z,21.76
2022-10-11T16:08:32.922Z,21.61
2022-10-11T16:10:59.348Z,21.43
2022-10-11T16:13:25.642Z,21.50
2022-10-11T16:15:52.109Z,21.59
2022-10-11T16:18:21.009Z,21.59
2022-10-11T16:20:50.919Z,21.51
2022-10-11T16:23:17.586Z,21.29
2022-10-11T16:25:46.221Z,21.28
2022-10-11T16:28:12.532Z,21.32
2022-10-11T16:30:45.280Z,21.32
2022-10-11T16:33:11.591Z,21.32
2022-10-11T16:35:41.489Z,21.27
2022-10-11T16:38:08.227Z,21.15
2022-10-11T16:40:35.963Z,21.13
2022-10-11T16:43:07.368Z,21.17
2022-10-11T16:45:34.925Z,21.15
2022-10-11T16:48:01.337Z,21.15
2022-10-11T16:50:28.908Z,21.20
2022-10-11T16:52:55.386Z,21.15
2022-10-11T16:55:22.487Z,21.17
2022-10-11T16:57:48.824Z,21.10
2022-10-11T17:00:15.853Z,21.10
2022-10-11T17:02:42.163Z,21.12
2022-10-11T17:05:08.527Z,21.04
2022-10-11T17:07:35.139Z,21.09
2022-10-11T17:10:01.602Z,20.99
2022-10-11T17:12:28.603Z,21.03
2022-10-11T17:14:55.268Z,21.05
2022-10-11T17:17:21.826Z,21.09
2022-10-11T17:19:48.200Z,21.06
2022-10-11T17:22:18.306Z,21.02
2022-10-11T17:24:45.097Z,20.84
2022-10-11T17:27:11.853Z,20.80
2022-10-11T17:29:38.348Z,20.82
2022-10-11T17:32:04.837Z,20.70
2022-10-11T17:34:31.231Z,20.69
2022-10-11T17:36:57.564Z,20.70
2022-10-11T17:39:23.998Z,20.65
2022-10-11T17:41:51.051Z,20.66
2022-10-11T17:44:18.342Z,20.56
2022-10-11T17:46:45.125Z,20.49
2022-10-11T17:49:11.823Z,20.43
2022-10-11T17:51:38.984Z,20.42
2022-10-11T17:54:06.125Z,20.34
2022-10-11T17:56:37.668Z,20.15
2022-10-11T17:59:04.408Z,20.15
2022-10-11T18:01:30.821Z,20.04
2022-10-11T18:04:00.320Z,19.99
2022-10-11T18:06:29.200Z,19.81
2022-10-11T18:08:57.218Z,19.87
2022-10-11T18:11:23.933Z,19.90
2022-10-11T18:13:53.102Z,19.83
2022-10-11T18:16:21.783Z,19.78
2022-10-11T18:18:48.501Z,19.72
2022-10-11T18:21:16.053Z,19.67
2022-10-11T18:23:42.499Z,19.64
2022-10-11T18:26:10.494Z,19.56
2022-10-11T18:28:37.022Z,19.63
2022-10-11T18:31:13.209Z,19.67
2022-10-11T18:33:40.930Z,19.58
2022-10-11T18:36:09.166Z,19.56
2022-10-11T18:38:35.791Z,19.56
2022-10-11T18:41:07.458Z,19.62
2022-10-11T18:43:35.037Z,19.66
2022-10-11T18:46:13.973Z,19.57
2022-10-11T18:48:41.998Z,19.49
2022-10-11T18:51:14.860Z,19.42
2022-10-11T18:53:41.994Z,19.38
2022-10-11T18:56:10.358Z,19.38
2022-10-11T18:58:38.181Z,19.33
2022-10-11T19:01:10.255Z,19.37
2022-10-11T19:03:37.128Z,19.30
2022-10-11T19:06:09.523Z,19.23
2022-10-11T19:08:36.023Z,19.21
2022-10-11T19:11:10.430Z,19.06
2022-10-11T19:13:36.853Z,19.04
2022-10-11T19:16:08.763Z,19.05
2022-10-11T19:18:38.344Z,18.90
2022-10-11T19:21:12.353Z,18.95
2022-10-11T19:23:41.027Z,18.94
2022-10-11T19:26:19.550Z,18.95
2022-10-11T19:28:46.827Z,18.75
2022-10-11T19:31:16.915Z,18.75
2022-10-11T19:33:45.321Z,18.78
2022-10-11T19:36:13.898Z,18.81
2022-10-11T19:38:43.965Z,18.83
2022-10-11T19:41:10.788Z,18.85
2022-10-11T19:43:37.068Z,18.76
2022-10-11T19:46:09.432Z,18.70
2022-10-11T19:48:37.997Z,18.78
2022-10-11T19:51:24.580Z,18.71
2022-10-11T19:54:04.594Z,18.65
2022-10-11T19:56:33.287Z,18.48
2022-10-11T19:59:00.725Z,18.37
2022-10-11T20:01:31.426Z,18.29
2022-10-11T20:04:02.129Z,18.20
2022-10-11T20:06:29.008Z,18.03
2022-10-11T20:09:16.608Z,18.09
2022-10-11T20:11:41.928Z,17.97
2022-10-11T20:14:08.678Z,17.95
2022-10-11T20:16:35.529Z,17.96
2022-10-11T20:19:02.048Z,17.78
2022-10-11T20:21:29.687Z,17.78
2022-10-11T20:24:01.850Z,17.77
2022-10-11T20:26:30.050Z,17.73
2022-10-11T20:28:57.415Z,17.66
2022-10-11T20:31:27.643Z,17.74
2022-10-11T20:33:56.852Z,17.52
2022-10-11T20:36:24.163Z,17.46
2022-10-11T20:38:51.585Z,17.50
2022-10-11T20:41:21.545Z,17.52
2022-10-11T20:43:49.917Z,17.46
2022-10-11T20:46:22.181Z,17.46
2022-10-11T20:48:58.901Z,17.48
2022-10-11T20:51:28.521Z,17.43
2022-10-11T20:53:54.900Z,17.42
2022-10-11T20:56:23.935Z,17.39
2022-10-11T20:58:52.600Z,17.32
2022-10-11T21:01:24.355Z,17.36
2022-10-11T21:03:50.668Z,17.42
2022-10-11T21:06:17.052Z,17.51
2022-10-11T21:08:43.798Z,17.64
2022-10-11T21:11:10.891Z,17.61
2022-10-11T21:13:37.695Z,17.61
2022-10-11T21:16:22.007Z,17.56
2022-10-11T21:18:55.994Z,17.55
2022-10-11T21:21:26.185Z,17.49
2022-10-11T21:23:57.041Z,17.54
2022-10-11T21:26:23.518Z,17.47
2022-10-11T21:28:49.910Z,17.53
2022-10-11T21:31:18.080Z,17.42
2022-10-11T21:33:44.972Z,17.47
2022-10-11T21:36:16.624Z,17.50
2022-10-11T21:38:44.556Z,17.49
2022-10-11T21:41:15.965Z,17.48
2022-10-11T21:43:42.510Z,17.47
2022-10-11T21:46:13.860Z,17.33
2022-10-11T21:48:40.523Z,17.29
2022-10-11T21:51:07.287Z,17.31
2022-10-11T21:53:33.760Z,17.35
2022-10-11T21:56:03.269Z,16.93
2022-10-11T21:58:29.681Z,16.98
2022-10-11T22:00:55.994Z,16.55
2022-10-11T22:03:22.321Z,16.74
2022-10-11T22:05:48.676Z,16.92
2022-10-11T22:08:15.361Z,16.85
2022-10-11T22:10:51.932Z,16.89
2022-10-11T22:13:18.229Z,16.89
2022-10-11T22:15:44.529Z,16.92
2022-10-11T22:18:10.915Z,16.98
2022-10-11T22:20:37.204Z,16.90
2022-10-11T22:23:03.762Z,16.65
2022-10-11T22:25:30.627Z,16.67
2022-10-11T22:27:56.920Z,16.74
2022-10-11T22:30:23.219Z,16.65
2022-10-11T22:32:51.057Z,16.66
2022-10-11T22:35:17.336Z,16.67
2022-10-11T22:37:44.058Z,16.57
2022-10-11T22:40:10.520Z,16.54
2022-10-11T22:42:36.893Z,16.35
2022-10-11T22:45:03.875Z,16.36
2022-10-11T22:47:30.192Z,16.26
2022-10-11T22:49:56.471Z,16.35
2022-10-11T22:52:22.790Z,16.39
2022-10-11T22:54:49.066Z,16.59
2022-10-11T22:57:15.387Z,16.59
2022-10-11T22:59:41.713Z,16.58
2022-10-11T23:02:08.260Z,16.32
2022-10-11T23:04:34.558Z,16.41
2022-10-11T23:07:04.807Z,16.33
2022-10-11T23:09:31.619Z,16.56
2022-10-11T23:11:59.422Z,16.65
2022-10-11T23:14:25.754Z,16.64
2022-10-11T23:16:52.386Z,16.62
2022-10-11T23:19:18.993Z,16.58
2022-10-11T23:21:45.309Z,16.52
2022-10-11T23:24:11.658Z,16.59
2022-10-11T23:26:38.029Z,16.41
2022-10-11T23:29:04.341Z,16.47
2022-10-11T23:31:30.714Z,16.49
2022-10-11T23:33:57.487Z,16.42
2022-10-11T23:36:25.682Z,16.36
2022-10-11T23:38:57.259Z,16.26
2022-10-11T23:41:28.056Z,16.27
2022-10-11T23:43:54.606Z,16.28
2022-10-11T23:46:21.404Z,16.44
2022-10-11T23:48:48.239Z,16.47
2022-10-11T23:51:14.604Z,16.49
2022-10-11T23:53:40.892Z,16.44
2022-10-11T23:56:07.728Z,16.37
2022-10-11T23:58:34.155Z,16.41
